Time;durP1;ratioP1;P1;durP2;ratioP2;P2;SDS_P1;SDS_P2;PMS_P1;PMS_P2;Temp;Humidity;BMP_temperature;BMP_pressure;BME280_temperature;BME280_humidity;BME280_pressure;Samples;Min_cycle;Max_cycle;Signal;HPM_P1;HPM_P2
2022/06/27 00:04:21;;;;;;;9.10;3.90;;;;;;;25.92;nan;100335.31;20803317;27;97639;-76
2022/06/27 00:14:21;;;;;;;7.95;4.00;;;;;;;25.93;nan;100347.56;20801145;27;101183;-77
2022/06/27 00:24:22;;;;;;;4.18;3.65;;;;;;;25.86;nan;100348.16;20808254;27;97741;-77
2022/06/27 00:34:23;;;;;;;6.93;3.43;;;;;;;25.78;nan;100356.06;20795461;27;97167;-75
2022/06/27 00:44:34;;;;;;;6.03;3.53;;;;;;;25.72;nan;100354.84;20798888;27;96990;-76
2022/06/27 00:54:36;;;;;;;8.38;3.45;;;;;;;25.67;nan;100350.94;20804468;27;98958;-76
2022/06/27 01:04:37;;;;;;;4.05;3.08;;;;;;;25.64;nan;100360.03;20798825;27;97558;-75
2022/06/27 01:14:38;;;;;;;6.50;3.20;;;;;;;25.53;nan;100368.22;20799221;27;97586;-75
2022/06/27 01:24:39;;;;;;;4.45;3.28;;;;;;;25.53;nan;100353.13;20724041;27;97127;-75
2022/06/27 01:34:39;;;;;;;7.10;3.17;;;;;;;25.45;nan;100360.16;20715311;27;99888;-75
2022/06/27 01:44:40;;;;;;;4.18;2.70;;;;;;;25.33;nan;100373.59;20719920;27;102679;-75
2022/06/27 01:54:41;;;;;;;3.35;2.65;;;;;;;25.37;nan;100372.31;20723802;27;97111;-75
2022/06/27 02:04:42;;;;;;;4.70;2.90;;;;;;;25.28;nan;100378.50;20723572;27;101698;-75
2022/06/27 02:14:42;;;;;;;3.10;2.80;;;;;;;25.20;nan;100388.97;20721431;27;96972;-75
2022/06/27 02:24:43;;;;;;;3.63;2.97;;;;;;;25.09;nan;100395.28;20785748;27;101200;-77
2022/06/27 02:34:44;;;;;;;5.82;3.08;;;;;;;24.98;nan;100384.88;20780776;27;98299;-75
2022/06/27 02:44:46;;;;;;;4.05;3.30;;;;;;;24.93;nan;100387.94;20789043;27;100465;-76
2022/06/27 02:54:54;;;;;;;4.22;3.13;;;;;;;24.96;nan;100394.78;20776629;27;99981;-75
2022/06/27 03:04:56;;;;;;;5.50;3.22;;;;;;;24.87;nan;100407.88;20775342;27;99299;-75
2022/06/27 03:14:56;;;;;;;5.30;3.13;;;;;;;24.81;nan;100416.41;20771969;27;98311;-76
2022/06/27 03:24:57;;;;;;;3.92;3.38;;;;;;;24.77;nan;100431.75;20783952;27;96941;-75
2022/06/27 03:34:57;;;;;;;4.50;3.22;;;;;;;24.81;nan;100444.72;20791937;27;97561;-75
2022/06/27 03:44:58;;;;;;;11.15;3.47;;;;;;;24.76;nan;100437.19;20780985;27;98016;-75
2022/06/27 03:54:59;;;;;;;4.93;3.37;;;;;;;24.77;nan;100444.16;20782620;27;97287;-75
2022/06/27 04:04:59;;;;;;;7.40;3.40;;;;;;;24.83;nan;100440.94;20791102;27;97899;-75
2022/06/27 04:14:59;;;;;;;6.57;3.05;;;;;;;24.86;nan;100450.41;20805866;27;98428;-75
2022/06/27 04:25:01;;;;;;;7.32;3.10;;;;;;;24.83;nan;100453.34;20792141;27;98361;-75
2022/06/27 04:35:02;;;;;;;;;;;;;;;24.83;nan;100461.28;20804602;27;101441;-81
2022/06/27 04:45:05;;;;;;;5.43;3.05;;;;;;;24.84;nan;100468.25;20818126;27;97912;-81
2022/06/27 04:55:10;;;;;;;4.35;2.70;;;;;;;24.79;nan;100471.31;20804137;27;102728;-79
2022/06/27 05:05:11;;;;;;;6.25;3.08;;;;;;;25.00;nan;100471.16;20812028;27;99204;-79
2022/06/27 05:15:11;;;;;;;5.03;2.70;;;;;;;25.04;nan;100479.66;20824522;27;97510;-79
2022/06/27 05:25:12;;;;;;;5.07;2.80;;;;;;;25.06;nan;100477.69;20793936;27;101614;-79
2022/06/27 05:35:12;;;;;;;6.10;2.92;;;;;;;24.96;nan;100477.72;20780073;27;98027;-76
2022/06/27 05:45:13;;;;;;;5.80;2.70;;;;;;;24.88;nan;100472.31;20772217;27;97352;-75
2022/06/27 05:55:14;;;;;;;5.03;3.00;;;;;;;24.98;nan;100477.59;20753951;27;98140;-77
2022/06/27 06:05:15;;;;;;;5.10;3.00;;;;;;;25.00;nan;100476.47;20775662;27;100904;-77
2022/06/27 06:15:15;;;;;;;4.07;2.90;;;;;;;25.10;nan;100498.47;20791329;27;100944;-77
2022/06/27 06:25:15;;;;;;;4.25;2.47;;;;;;;25.20;nan;100500.28;20795509;27;97151;-77
2022/06/27 06:35:16;;;;;;;4.32;2.65;;;;;;;25.36;nan;100511.09;20818631;27;98358;-78
2022/06/27 06:45:17;;;;;;;6.70;2.80;;;;;;;25.54;nan;100523.66;20817952;27;97468;-78
2022/06/27 06:55:21;;;;;;;7.70;2.57;;;;;;;25.73;nan;100509.47;20780878;27;97628;-72
2022/06/27 07:05:22;;;;;;;7.25;2.75;;;;;;;25.82;nan;100511.25;20773368;27;97880;-74
2022/06/27 07:15:22;;;;;;;3.22;2.92;;;;;;;25.87;nan;100508.19;20814162;27;97007;-74
2022/06/27 07:25:23;;;;;;;6.55;2.90;;;;;;;25.98;nan;100501.84;20814391;27;97189;-77
2022/06/27 07:35:24;;;;;;;3.70;3.13;;;;;;;26.05;nan;100500.28;20795918;27;101046;-74
2022/06/27 07:45:26;;;;;;;6.97;2.50;;;;;;;26.11;nan;100497.03;20790124;27;98380;-74
2022/06/27 07:55:26;;;;;;;5.60;2.70;;;;;;;26.22;nan;100503.97;20808075;27;99553;-76
2022/06/27 08:05:28;;;;;;;3.57;3.00;;;;;;;26.32;nan;100504.72;20825043;27;98177;-74
2022/06/27 08:15:29;;;;;;;7.95;3.17;;;;;;;26.42;nan;100511.81;20829766;27;97796;-74
2022/06/27 08:25:30;;;;;;;6.40;2.97;;;;;;;26.47;nan;100514.84;20764310;27;97826;-75
2022/06/27 08:35:31;;;;;;;3.90;3.03;;;;;;;26.49;nan;100505.72;20768751;27;96999;-75
2022/06/27 08:45:32;;;;;;;4.45;2.83;;;;;;;26.55;nan;100514.06;20773746;27;97202;-74
2022/06/27 08:55:33;;;;;;;3.13;2.72;;;;;;;26.61;nan;100506.34;20758392;27;97187;-74
2022/06/27 09:05:34;;;;;;;7.00;2.63;;;;;;;26.65;nan;100496.25;20754907;27;97515;-77
2022/06/27 09:15:54;;;;;;;5.23;2.80;;;;;;;26.76;nan;100489.91;20767939;27;98352;-77
2022/06/27 09:26:45;;;;;;;6.22;3.08;;;;;;;26.85;nan;100483.66;20835893;27;97862;-78
2022/06/27 09:37:11;;;;;;;;;;;;;;;26.92;nan;100471.41;20830895;27;98054;-76
2022/06/27 09:47:16;;;;;;;3.97;2.80;;;;;;;26.96;nan;100471.94;20847235;27;98109;-78
2022/06/27 09:57:17;;;;;;;4.18;2.55;;;;;;;27.03;nan;100457.03;20834402;27;97466;-77
2022/06/27 10:07:22;;;;;;;5.78;2.75;;;;;;;27.11;nan;100461.56;20827531;27;97235;-77
2022/06/27 10:17:27;;;;;;;5.07;2.70;;;;;;;27.20;nan;100442.03;20825416;27;97660;-76
2022/06/27 10:27:30;;;;;;;4.13;2.60;;;;;;;27.30;nan;100440.09;20830461;27;97208;-76
2022/06/27 10:37:35;;;;;;;2.80;2.30;;;;;;;27.38;nan;100415.38;20818580;27;97766;-78
2022/06/27 10:47:36;;;;;;;7.35;2.92;;;;;;;27.43;nan;100421.06;20803376;27;99167;-78
2022/06/27 10:57:38;;;;;;;3.58;2.45;;;;;;;27.49;nan;100414.28;20812027;27;96952;-76
2022/06/27 11:07:39;;;;;;;4.28;2.63;;;;;;;27.60;nan;100413.16;20822837;27;97306;-78
2022/06/27 11:17:44;;;;;;;5.80;2.45;;;;;;;27.68;nan;100391.91;20851729;27;97039;-78
2022/06/27 11:27:47;;;;;;;5.35;3.10;;;;;;;27.86;nan;100393.63;20829014;27;97981;-77
2022/06/27 11:37:47;;;;;;;6.50;2.65;;;;;;;27.95;nan;100376.66;20858283;27;98106;-78
2022/06/27 11:47:48;;;;;;;6.07;2.50;;;;;;;28.06;nan;100371.06;20843753;27;98173;-78
2022/06/27 11:57:50;;;;;;;5.55;2.88;;;;;;;28.16;nan;100362.06;20832749;27;97338;-78
2022/06/27 12:07:58;;;;;;;9.15;2.53;;;;;;;28.23;nan;100355.91;20856887;27;98979;-78
2022/06/27 12:18:01;;;;;;;3.42;2.50;;;;;;;28.29;nan;100343.75;20852830;27;99451;-77
2022/06/27 12:28:05;;;;;;;3.47;2.40;;;;;;;28.41;nan;100349.59;20849280;27;97967;-79
2022/06/27 12:38:07;;;;;;;9.13;2.45;;;;;;;28.45;nan;100337.59;20838632;27;100063;-79
2022/06/27 12:48:09;;;;;;;4.10;2.25;;;;;;;28.48;nan;100337.28;20854925;27;98211;-77
2022/06/27 12:58:09;;;;;;;6.68;2.80;;;;;;;28.54;nan;100323.28;20853707;27;99115;-81
2022/06/27 13:08:10;;;;;;;5.80;3.30;;;;;;;28.79;nan;100323.25;20851080;27;98215;-79
2022/06/27 13:18:12;;;;;;;6.43;2.45;;;;;;;28.87;nan;100315.22;20850367;27;97824;-80
2022/06/27 13:28:13;;;;;;;3.85;3.08;;;;;;;28.87;nan;100304.56;20855863;27;99976;-77
2022/06/27 13:38:14;;;;;;;5.40;3.17;;;;;;;28.80;nan;100310.75;20832353;27;99095;-77
2022/06/27 13:48:14;;;;;;;4.47;2.37;;;;;;;28.78;nan;100296.78;20796027;27;98423;-76
2022/06/27 13:58:15;;;;;;;2.88;2.50;;;;;;;28.81;nan;100297.25;20836767;27;99571;-80
2022/06/27 14:08:19;;;;;;;3.58;2.30;;;;;;;28.83;nan;100286.41;20838624;27;97856;-79
2022/06/27 14:18:19;;;;;;;4.13;2.63;;;;;;;28.83;nan;100278.41;20870684;27;97641;-81
2022/06/27 14:28:20;;;;;;;5.75;2.60;;;;;;;29.04;nan;100269.81;20859724;27;97574;-82
2022/06/27 14:38:20;;;;;;;11.18;3.40;;;;;;;29.24;nan;100262.25;20833407;27;97345;-79
2022/06/27 14:48:22;;;;;;;3.50;2.45;;;;;;;29.25;nan;100242.56;20843983;27;99552;-79
2022/06/27 14:58:23;;;;;;;5.00;2.63;;;;;;;29.34;nan;100244.19;20853105;27;100875;-78
2022/06/27 15:08:25;;;;;;;3.85;2.67;;;;;;;29.42;nan;100231.81;20831869;27;97977;-77
2022/06/27 15:18:25;;;;;;;5.07;2.53;;;;;;;29.48;nan;100225.75;20839697;27;101001;-80
2022/06/27 15:28:26;;;;;;;2.90;2.42;;;;;;;29.60;nan;100218.19;20820273;27;97071;-79
2022/06/27 15:38:26;;;;;;;10.95;2.80;;;;;;;29.58;nan;100231.69;20814474;27;99266;-79
2022/06/27 15:48:27;;;;;;;4.68;2.85;;;;;;;29.59;nan;100229.84;20803146;27;97805;-76
2022/06/27 15:58:27;;;;;;;7.97;2.33;;;;;;;29.66;nan;100226.31;20830770;27;97614;-75
2022/06/27 16:08:28;;;;;;;5.00;2.47;;;;;;;29.69;nan;100214.44;20845402;27;100826;-74
2022/06/27 16:18:28;;;;;;;6.20;2.63;;;;;;;29.70;nan;100214.25;20832508;27;100074;-77
2022/06/27 16:28:29;;;;;;;4.28;2.42;;;;;;;29.75;nan;100219.06;20805322;27;97288;-74
2022/06/27 16:38:30;;;;;;;3.70;2.50;;;;;;;29.86;nan;100213.28;20833669;27;100204;-73
2022/06/27 16:48:31;;;;;;;7.75;2.83;;;;;;;29.98;nan;100215.53;20818568;27;97465;-77
2022/06/27 16:58:32;;;;;;;6.55;2.58;;;;;;;29.87;nan;100208.78;20826927;27;98421;-76
2022/06/27 17:08:33;;;;;;;5.28;2.30;;;;;;;29.85;nan;100205.47;20814031;27;97378;-76
2022/06/27 17:18:34;;;;;;;5.47;2.50;;;;;;;29.74;nan;100209.38;20826219;27;98533;-76
2022/06/27 17:28:34;;;;;;;6.95;2.60;;;;;;;29.69;nan;100215.25;20834474;27;100711;-76
2022/06/27 17:38:35;;;;;;;5.63;2.53;;;;;;;29.62;nan;100203.66;20815936;27;99414;-75
2022/06/27 17:48:35;;;;;;;3.80;2.50;;;;;;;29.55;nan;100202.69;20821164;27;97189;-78
2022/06/27 17:58:36;;;;;;;6.97;2.80;;;;;;;29.50;nan;100207.75;20820482;27;97138;-75
2022/06/27 18:08:36;;;;;;;8.65;3.10;;;;;;;29.49;nan;100208.75;20800801;27;100598;-73
2022/06/27 18:18:37;;;;;;;7.82;3.47;;;;;;;29.47;nan;100208.13;20809529;27;100614;-74
2022/06/27 18:28:37;;;;;;;7.03;3.13;;;;;;;29.46;nan;100220.63;20814747;27;97673;-75
2022/06/27 18:38:37;;;;;;;4.18;2.70;;;;;;;29.46;nan;100230.47;20822646;27;98199;-73
2022/06/27 18:48:38;;;;;;;4.78;3.35;;;;;;;29.41;nan;100232.81;20817761;27;97903;-71
2022/06/27 18:58:40;;;;;;;5.35;2.95;;;;;;;29.38;nan;100252.66;20795266;27;97983;-75
2022/06/27 19:08:41;;;;;;;9.68;5.60;;;;;;;29.34;nan;100278.88;20781704;27;98021;-73
2022/06/27 19:18:41;;;;;;;7.05;4.13;;;;;;;29.19;nan;100286.75;20815932;27;100290;-75
2022/06/27 19:28:42;;;;;;;14.80;9.45;;;;;;;29.07;nan;100296.16;20821691;27;98583;-75
2022/06/27 19:38:42;;;;;;;7.13;4.30;;;;;;;28.90;nan;100312.19;20821105;27;97881;-76
2022/06/27 19:48:45;;;;;;;10.93;6.50;;;;;;;28.78;nan;100320.75;20827233;27;97732;-76
2022/06/27 19:58:46;;;;;;;7.57;4.60;;;;;;;28.72;nan;100319.59;20838792;27;99023;-75
2022/06/27 20:08:46;;;;;;;5.35;4.22;;;;;;;28.69;nan;100322.63;20850177;27;97599;-74
2022/06/27 20:18:47;;;;;;;6.30;3.25;;;;;;;28.63;nan;100334.75;20845361;27;98439;-75
2022/06/27 20:28:47;;;;;;;9.07;3.80;;;;;;;28.52;nan;100337.75;20848480;27;98734;-74
2022/06/27 20:38:47;;;;;;;8.07;3.73;;;;;;;28.48;nan;100325.75;20848952;27;96873;-75
2022/06/27 20:48:48;;;;;;;7.40;3.47;;;;;;;28.38;nan;100334.78;20848405;27;98668;-75
2022/06/27 20:58:49;;;;;;;4.17;3.40;;;;;;;28.26;nan;100339.63;20854493;27;97230;-74
2022/06/27 21:19:08;;;;;;;8.40;4.00;;;;;;;28.21;nan;100357.06;20816773;27;97835;-75
2022/06/27 21:29:10;;;;;;;;;;;;;;;28.17;nan;100359.22;20763289;27;97446;-76
2022/06/27 21:39:10;;;;;;;5.60;3.78;;;;;;;28.13;nan;100346.44;20758957;27;102617;-76
2022/06/27 21:49:11;;;;;;;7.53;4.47;;;;;;;28.05;nan;100341.94;20759210;27;98093;-75
2022/06/27 21:59:12;;;;;;;;;;;;;;;27.98;nan;100323.13;20773228;27;98563;-76
2022/06/27 22:09:13;;;;;;;;;;;;;;;27.96;nan;100323.28;20774665;27;97687;-76
2022/06/27 22:19:14;;;;;;;5.00;3.90;;;;;;;27.97;nan;100310.81;20724656;27;97286;-77
2022/06/27 22:29:14;;;;;;;;;;;;;;;27.99;nan;100314.13;20718054;27;97682;-76
2022/06/27 22:39:15;;;;;;;4.80;3.17;;;;;;;27.84;nan;100337.06;20751003;27;97110;-77
2022/06/27 22:49:15;;;;;;;;;;;;;;;27.74;nan;100361.97;20741218;27;97123;-77
2022/06/27 22:59:16;;;;;;;4.80;3.20;;;;;;;27.63;nan;100372.94;20726822;27;97631;-77
2022/06/27 23:09:17;;;;;;;;;;;;;;;27.64;nan;100372.78;20722963;27;98463;-77
2022/06/27 23:19:17;;;;;;;5.90;3.38;;;;;;;27.50;nan;100369.91;20702253;27;97076;-76
2022/06/27 23:29:18;;;;;;;4.90;3.63;;;;;;;27.39;nan;100376.31;20825086;27;97692;-75
2022/06/27 23:39:19;;;;;;;5.75;3.15;;;;;;;27.37;nan;100360.53;20830908;27;97877;-75
2022/06/27 23:49:21;;;;;;;;;;;;;;;27.29;nan;100342.72;20840892;27;97272;-76
2022/06/27 23:59:24;;;;;;;5.15;3.17;;;;;;;27.21;nan;100358.66;20781780;27;97342;-77
